Alderson, OK

4:45 PM CDT on September 18, 2014 (GMT -0500)
Kinkead Hills | Change Station
CLOSE
Current Station
Personal Weather Station
Location: McAlester, OK
Elevation: 808 ft
Nearby Weather Stations

Elev 808 ft 34.90 °N, 95.73 °W | Updated 1 minute ago

Clear
Clear
86.4 °F
Feels Like 91 °F
N
0.0
Wind Variable Wind from NNE

Today
High -- | Low -- °F
--% Chance of Precip.
Yesterday
High -- | Low -- °F
Precip. -- in
7:07 AM 7:25 PM
Waning Crescent, 24% visible
Pressure 29.86 in
Visibility 10.0 miles
Clouds Clear
Heat Index 91 °F
Dew Point 69 °F
Humidity 57%
Rainfall 0.00 in
Snow Depth Not available.
UV 5 out of 12
Pollen 9.20 out of 12
Air Quality Not available.
Flu Activity Not available.
METAR KMLC 182053Z AUTO 20005KT 10SM CLR 31/18 A2988 RMK AO2 SLP109 T03060183 58022

More Conditions Fewer Conditions

Pressure 29.86 in
Visibility 10.0 miles
Clouds Clear
Heat Index 91 °F
Dew Point 69 °F
Humidity 57%
Rainfall 0.00 in
Snow Depth Not available.
UV 5 out of 12
Pollen 9.20 out of 12
Air Quality Not available.
Flu Activity Not available.
METAR KMLC 182053Z AUTO 20005KT 10SM CLR 31/18 A2988 RMK AO2 SLP109 T03060183 58022

More Conditions Fewer Conditions

Nowcast | as of 4:14 PM CDT on September 18, 2014

At 4:15 PM...National Weather Service Doppler radar indicated small weakening showers cross the state line of Kansas into Osage County. This activity will result in passing light showers or occasional sprinkles for locations across Osage County...mainly west of a Bigheart to Barnsdall line. Anticipated rainfall will vary from a trace to a couple hundredths of an inch. This activity is expected to completely dissipate by 5:15 PM... therefore this will be the final short term forecast issued for this event.

×

10-Day Weather Forecast

Almanac

Astronomy

Sep. 18, 2014 Rise Set
Actual Time 7:07 AM CDT 7:25 PM CDT
Civil Twilight 6:42 AM CDT 7:50 PM CDT
Nautical Twilight 6:12 AM CDT 8:20 PM CDT
Astronomical Twilight 5:42 AM CDT 8:50 PM CDT
Moon 2:09 AM CDT 4:08 PM CDT
Length of Visible Light 13h 07m
Length of Day
12h 17m
Tomorrow will be 2m 10s shorter.
Waning Crescent, 24% of the Moon is Illuminated
Today
Waning Crescent
Sep 24
New
Oct 1
First Quarter
Oct 8
Full
Oct 15
Last Quarter

Today's Extremes

State Highs State Lows

Community

WunderPhotos

Upload Photos

1,754,452 photos uploaded!

WunderBlogs® & News

Nearby

Snow Depth

Station Depth Elevation
No new snow has been reported.

Earthquake Activity

City Distance Mag. Time & Date
Perry, Oklahoma 129 miles 3.4 2:52 PM CDT
2014-09-18
Perry, Oklahoma 126 miles 3.9 2:12 AM CDT
2014-09-18
Perry, Oklahoma 124 miles 2.5 2:57 PM CDT
2014-09-17
Perry, Oklahoma 125 miles 2.7 1:28 PM CDT
2014-09-17
Minimum magnitude displayed is 2.5.

Coastal Water Temperatures

Place Temperature
No Stations Reporting

Nearby Weather Stations